createdAt,value
2023-05-14T00:01:39.321Z,13.43
2023-05-14T00:04:11.893Z,13.40
2023-05-14T00:06:41.873Z,13.33
2023-05-14T00:09:11.790Z,13.35
2023-05-14T00:11:41.937Z,13.22
2023-05-14T00:14:11.873Z,13.16
2023-05-14T00:16:41.870Z,13.10
2023-05-14T00:19:14.650Z,13.13
2023-05-14T00:21:44.683Z,13.06
2023-05-14T00:24:14.710Z,12.96
2023-05-14T00:26:44.725Z,12.93
2023-05-14T00:29:14.854Z,12.96
2023-05-14T00:31:44.901Z,12.92
2023-05-14T00:34:17.428Z,12.88
2023-05-14T00:37:07.032Z,12.82
2023-05-14T00:39:39.470Z,12.81
2023-05-14T00:42:16.144Z,12.74
2023-05-14T00:44:51.728Z,12.73
2023-05-14T00:47:35.115Z,12.77
2023-05-14T00:50:09.931Z,12.80
2023-05-14T00:52:43.601Z,12.81
2023-05-14T00:55:22.594Z,12.81
2023-05-14T00:57:53.738Z,12.78
2023-05-14T01:00:24.170Z,12.76
2023-05-14T01:02:54.389Z,12.76
2023-05-14T01:05:28.929Z,12.59
2023-05-14T01:08:05.643Z,12.62
2023-05-14T01:10:42.167Z,12.57
2023-05-14T01:13:16.863Z,12.55
2023-05-14T01:15:47.674Z,12.51
2023-05-14T01:18:21.647Z,12.58
2023-05-14T01:20:59.136Z,12.31
2023-05-14T01:23:34.226Z,12.09
2023-05-14T01:26:10.109Z,12.12
2023-05-14T01:29:05.213Z,12.08
2023-05-14T01:32:01.430Z,12.13
2023-05-14T01:36:10.972Z,12.17
2023-05-14T01:39:19.823Z,12.20
2023-05-14T01:45:25.963Z,12.00
2023-05-14T01:47:56.501Z,12.03
2023-05-14T01:50:26.541Z,11.98
2023-05-14T01:52:57.003Z,11.98
2023-05-14T01:55:36.020Z,11.97
2023-05-14T01:58:09.803Z,11.61
2023-05-14T02:00:51.000Z,11.13
2023-05-14T02:03:20.866Z,10.87
2023-05-14T02:09:00.038Z,10.96
2023-05-14T02:20:52.287Z,11.40
2023-05-14T02:23:31.071Z,11.44
2023-05-14T02:26:09.799Z,11.42
2023-05-14T02:28:39.776Z,11.45
2023-05-14T02:31:09.615Z,11.45
2023-05-14T02:33:39.617Z,11.41
2023-05-14T02:36:12.294Z,11.27
2023-05-14T02:38:42.126Z,11.23
2023-05-14T02:41:12.065Z,11.17
2023-05-14T02:43:41.903Z,11.11
2023-05-14T02:46:11.748Z,11.06
2023-05-14T02:48:41.701Z,10.96
2023-05-14T02:51:16.360Z,10.99
2023-05-14T02:53:46.445Z,11.01
2023-05-14T02:56:16.665Z,10.96
2023-05-14T02:58:46.594Z,11.04
2023-05-14T03:01:18.980Z,11.07
2023-05-14T03:03:49.577Z,11.09
2023-05-14T03:06:22.580Z,11.06
2023-05-14T03:08:52.548Z,11.01
2023-05-14T03:11:22.430Z,10.98
2023-05-14T03:13:52.384Z,10.93
2023-05-14T03:16:22.314Z,10.97
2023-05-14T03:18:52.968Z,10.97
2023-05-14T03:21:25.621Z,11.01
2023-05-14T03:23:55.758Z,10.99
2023-05-14T03:26:25.639Z,10.88
2023-05-14T03:28:56.168Z,10.84
2023-05-14T03:31:26.281Z,10.83
2023-05-14T03:33:59.620Z,10.81
2023-05-14T03:36:32.178Z,10.78
2023-05-14T03:39:03.412Z,10.80
2023-05-14T03:41:33.363Z,10.79
2023-05-14T03:44:03.518Z,10.76
2023-05-14T03:46:33.305Z,10.75
2023-05-14T03:49:03.642Z,10.76
2023-05-14T03:51:36.208Z,10.75
2023-05-14T03:54:08.365Z,10.78
2023-05-14T03:56:38.285Z,10.71
2023-05-14T03:59:08.200Z,10.66
2023-05-14T04:01:38.080Z,10.61
2023-05-14T04:04:08.211Z,10.62
2023-05-14T04:06:40.698Z,10.63
2023-05-14T04:09:11.042Z,10.68
2023-05-14T04:11:40.853Z,10.69
2023-05-14T04:14:10.755Z,10.78
2023-05-14T04:16:40.871Z,10.76
2023-05-14T04:19:11.038Z,10.75
2023-05-14T04:21:43.712Z,10.70
2023-05-14T04:24:13.549Z,10.73
2023-05-14T04:26:43.364Z,10.65
2023-05-14T04:29:13.169Z,10.63
2023-05-14T04:31:43.402Z,10.62
2023-05-14T04:34:13.385Z,10.63
2023-05-14T04:36:45.912Z,10.63
2023-05-14T04:39:15.837Z,10.65
2023-05-14T04:41:45.708Z,10.68
2023-05-14T04:44:16.127Z,10.69
2023-05-14T04:46:45.914Z,10.80
2023-05-14T04:49:15.768Z,10.97
2023-05-14T04:51:48.377Z,11.07
2023-05-14T04:54:18.272Z,11.13
2023-05-14T04:56:48.089Z,11.27
2023-05-14T04:59:17.901Z,11.34
2023-05-14T05:01:48.070Z,11.49
2023-05-14T05:04:18.166Z,11.63
2023-05-14T05:06:50.952Z,11.76
2023-05-14T05:09:20.990Z,11.88
2023-05-14T05:11:50.727Z,11.94
2023-05-14T05:14:20.921Z,12.05
2023-05-14T05:16:50.876Z,12.14
2023-05-14T05:19:26.527Z,12.23
2023-05-14T05:22:04.819Z,12.25
2023-05-14T05:24:34.823Z,12.38
2023-05-14T05:27:05.667Z,12.47
2023-05-14T05:29:35.260Z,12.55
2023-05-14T05:32:05.173Z,12.62
2023-05-14T05:34:35.112Z,12.68
2023-05-14T05:37:09.467Z,12.79
2023-05-14T05:39:39.383Z,12.80
2023-05-14T05:42:10.631Z,12.84
2023-05-14T05:44:40.487Z,13.01
2023-05-14T05:47:10.587Z,13.06
2023-05-14T05:49:40.318Z,13.22
2023-05-14T05:52:13.253Z,13.29
2023-05-14T05:54:43.007Z,13.41
2023-05-14T05:57:12.833Z,13.46
2023-05-14T05:59:42.649Z,13.64
2023-05-14T06:02:12.669Z,13.77
2023-05-14T06:04:42.557Z,13.90
2023-05-14T06:07:15.006Z,13.97
2023-05-14T06:09:44.819Z,14.12
2023-05-14T06:12:14.581Z,14.15
2023-05-14T06:14:44.434Z,14.23
2023-05-14T06:17:14.294Z,14.29
2023-05-14T06:19:44.117Z,14.38
2023-05-14T06:22:16.797Z,14.50
2023-05-14T06:24:46.597Z,14.56
2023-05-14T06:27:16.497Z,14.60
2023-05-14T06:32:31.394Z,14.78
2023-05-14T06:35:01.404Z,14.84
2023-05-14T06:37:34.417Z,14.99
2023-05-14T06:40:04.786Z,15.05
2023-05-14T06:42:34.855Z,15.21
2023-05-14T06:45:08.786Z,15.26
2023-05-14T06:47:38.920Z,15.43
2023-05-14T06:50:10.898Z,15.53
2023-05-14T06:52:44.165Z,15.61
2023-05-14T06:55:14.256Z,15.78
2023-05-14T06:57:44.825Z,15.88
2023-05-14T07:00:15.835Z,15.91
2023-05-14T07:02:46.012Z,15.98
2023-05-14T07:05:16.435Z,16.07
2023-05-14T07:07:49.140Z,16.17
2023-05-14T07:10:19.345Z,16.25
2023-05-14T07:12:49.516Z,16.48
2023-05-14T07:15:19.695Z,16.58
2023-05-14T07:17:49.743Z,16.65
2023-05-14T07:20:19.879Z,16.73
2023-05-14T07:22:52.524Z,16.92
2023-05-14T07:25:22.444Z,16.95
2023-05-14T07:27:52.666Z,16.95
2023-05-14T07:30:23.244Z,17.01
2023-05-14T07:32:53.655Z,17.13
2023-05-14T07:35:23.982Z,17.23
2023-05-14T07:37:56.859Z,17.27
2023-05-14T07:40:27.856Z,17.45
2023-05-14T07:42:57.967Z,17.57
2023-05-14T07:45:28.066Z,17.54
2023-05-14T07:47:58.468Z,17.67
2023-05-14T07:50:28.514Z,17.62
2023-05-14T07:53:01.230Z,17.75
2023-05-14T07:55:31.685Z,18.08
2023-05-14T07:58:01.526Z,18.17
2023-05-14T08:00:31.682Z,18.20
2023-05-14T08:03:01.946Z,18.42
2023-05-14T08:05:33.174Z,18.58
2023-05-14T08:08:05.905Z,18.81
2023-05-14T08:10:36.134Z,18.90
2023-05-14T08:13:06.507Z,18.82
2023-05-14T08:15:36.651Z,18.88
2023-05-14T08:18:07.101Z,19.00
2023-05-14T08:20:37.089Z,19.06
2023-05-14T08:23:10.092Z,19.00
2023-05-14T08:25:40.212Z,19.36
2023-05-14T08:28:10.537Z,19.27
2023-05-14T08:30:40.673Z,19.34
2023-05-14T08:33:10.811Z,19.29
2023-05-14T08:35:40.912Z,19.15
2023-05-14T08:38:13.741Z,19.05
2023-05-14T08:40:44.588Z,19.22
2023-05-14T08:43:15.137Z,19.54
2023-05-14T08:45:45.163Z,19.67
2023-05-14T08:48:19.077Z,19.99
2023-05-14T08:50:49.924Z,20.34
2023-05-14T08:53:22.670Z,20.21
2023-05-14T08:55:54.164Z,20.60
2023-05-14T08:58:25.921Z,20.95
2023-05-14T09:00:57.072Z,20.94
2023-05-14T09:03:27.369Z,21.17
2023-05-14T09:05:59.370Z,21.47
2023-05-14T09:08:33.579Z,21.65
2023-05-14T09:11:03.677Z,21.99
2023-05-14T09:13:34.084Z,22.19
2023-05-14T09:16:04.557Z,22.43
2023-05-14T09:18:34.743Z,22.35
2023-05-14T09:21:05.097Z,22.71
2023-05-14T09:23:37.892Z,22.51
2023-05-14T09:26:08.743Z,22.53
2023-05-14T09:28:38.878Z,22.28
2023-05-14T09:31:08.949Z,22.25
2023-05-14T09:33:39.110Z,22.05
2023-05-14T09:36:09.890Z,21.88
2023-05-14T09:38:42.767Z,21.88
2023-05-14T09:41:13.015Z,21.58
2023-05-14T09:43:43.121Z,21.39
2023-05-14T09:46:13.530Z,21.20
2023-05-14T09:48:43.509Z,21.13
2023-05-14T09:51:14.514Z,21.44
2023-05-14T09:53:48.095Z,21.74
2023-05-14T09:56:19.106Z,21.63
2023-05-14T09:58:49.199Z,22.24
2023-05-14T10:01:21.840Z,22.45
2023-05-14T10:03:52.750Z,23.05
2023-05-14T10:06:26.821Z,23.09
2023-05-14T10:09:00.466Z,22.78
2023-05-14T10:11:34.987Z,22.36
2023-05-14T10:14:08.144Z,22.07
2023-05-14T10:16:41.143Z,21.88
2023-05-14T10:19:13.279Z,21.82
2023-05-14T10:21:44.573Z,21.73
2023-05-14T10:24:17.610Z,21.73
2023-05-14T10:26:48.652Z,21.92
2023-05-14T10:29:18.723Z,22.42
2023-05-14T10:31:54.004Z,22.46
2023-05-14T10:34:37.997Z,22.50
2023-05-14T10:37:08.728Z,22.62
2023-05-14T10:40:01.080Z,22.37
2023-05-14T10:42:32.264Z,22.22
2023-05-14T10:45:06.678Z,21.92
2023-05-14T10:47:37.630Z,21.87
2023-05-14T10:50:09.719Z,21.82
2023-05-14T10:52:40.124Z,21.60
2023-05-14T10:55:15.275Z,21.99
2023-05-14T10:57:46.589Z,22.51
2023-05-14T11:00:17.846Z,22.46
2023-05-14T11:02:48.202Z,22.30
2023-05-14T11:05:18.440Z,22.17
2023-05-14T11:07:50.217Z,22.01
2023-05-14T11:10:26.137Z,21.78
2023-05-14T11:12:56.392Z,21.71
2023-05-14T11:15:28.749Z,21.59
2023-05-14T11:17:59.015Z,21.60
2023-05-14T11:20:29.338Z,21.57
2023-05-14T11:22:59.351Z,21.50
2023-05-14T11:25:31.962Z,21.42
2023-05-14T11:28:02.005Z,21.52
2023-05-14T11:30:34.540Z,21.43
2023-05-14T11:33:04.692Z,21.44
2023-05-14T11:35:35.421Z,21.56
2023-05-14T11:38:06.822Z,21.43
2023-05-14T11:40:40.566Z,22.05
2023-05-14T11:43:10.571Z,22.09
2023-05-14T11:45:40.695Z,21.87
2023-05-14T11:48:18.228Z,21.86
2023-05-14T11:50:49.886Z,21.93
2023-05-14T11:53:21.288Z,21.75
2023-05-14T11:55:54.402Z,21.74
2023-05-14T11:58:24.810Z,21.70
2023-05-14T12:00:54.685Z,21.53
2023-05-14T12:03:26.793Z,21.54
2023-05-14T12:05:59.868Z,21.56
2023-05-14T12:08:31.467Z,21.58
2023-05-14T12:11:04.646Z,21.63
2023-05-14T12:13:35.024Z,21.69
2023-05-14T12:16:05.681Z,21.91
2023-05-14T12:18:35.987Z,22.12
2023-05-14T12:21:08.143Z,22.35
2023-05-14T12:23:38.401Z,22.34
2023-05-14T12:26:12.233Z,22.55
2023-05-14T12:28:44.755Z,22.76
2023-05-14T12:31:15.418Z,22.74
2023-05-14T12:37:12.747Z,23.14
2023-05-14T12:39:46.341Z,23.34
2023-05-14T12:42:51.917Z,23.27
2023-05-14T12:45:43.495Z,23.29
2023-05-14T12:48:15.258Z,23.41
2023-05-14T12:51:07.314Z,23.47
2023-05-14T12:53:55.018Z,23.37
2023-05-14T12:56:38.294Z,23.28
2023-05-14T12:59:29.378Z,23.45
2023-05-14T13:02:17.429Z,23.80
2023-05-14T13:05:12.042Z,23.69
2023-05-14T13:11:39.397Z,23.37
2023-05-14T13:14:11.899Z,23.20
2023-05-14T13:16:41.731Z,23.13
2023-05-14T13:19:11.819Z,22.84
2023-05-14T13:21:41.836Z,22.80
2023-05-14T13:24:11.878Z,22.73
2023-05-14T13:26:41.829Z,22.59
2023-05-14T13:29:14.367Z,22.41
2023-05-14T13:31:47.307Z,22.26
2023-05-14T13:34:17.631Z,22.18
2023-05-14T13:36:50.051Z,21.95
2023-05-14T13:39:23.034Z,21.88
2023-05-14T13:41:53.549Z,21.88
2023-05-14T13:44:25.758Z,21.78
2023-05-14T13:46:55.880Z,21.82
2023-05-14T13:49:25.817Z,21.89
2023-05-14T13:51:55.721Z,21.94
2023-05-14T13:54:25.646Z,22.01
2023-05-14T13:56:55.577Z,22.12
2023-05-14T13:59:28.074Z,22.14
2023-05-14T14:01:58.024Z,22.10
2023-05-14T14:04:29.227Z,22.19
2023-05-14T14:06:59.082Z,22.07
2023-05-14T14:09:29.064Z,22.12
2023-05-14T14:11:58.864Z,22.03
2023-05-14T14:14:31.537Z,22.31
2023-05-14T14:17:01.363Z,22.38
2023-05-14T14:19:31.285Z,22.38
2023-05-14T14:22:01.291Z,22.40
2023-05-14T14:24:31.307Z,22.46
2023-05-14T14:27:02.436Z,22.51
2023-05-14T14:29:35.644Z,22.49
2023-05-14T14:32:05.620Z,22.44
2023-05-14T14:34:35.457Z,22.43
2023-05-14T14:37:05.281Z,22.28
2023-05-14T14:39:35.037Z,22.33
2023-05-14T14:42:04.994Z,22.39
2023-05-14T14:44:37.554Z,22.42
2023-05-14T14:47:08.115Z,22.28
2023-05-14T14:49:37.924Z,22.18
2023-05-14T14:52:08.203Z,21.97
2023-05-14T14:54:37.932Z,21.78
2023-05-14T14:57:08.536Z,21.74
2023-05-14T14:59:41.531Z,21.58
2023-05-14T15:02:15.017Z,21.52
2023-05-14T15:04:45.135Z,21.33
2023-05-14T15:07:16.146Z,20.86
2023-05-14T15:09:46.160Z,20.62
2023-05-14T15:12:17.258Z,20.41
2023-05-14T15:14:49.846Z,20.34
2023-05-14T15:17:19.707Z,20.19
2023-05-14T15:19:49.488Z,20.23
2023-05-14T15:22:19.367Z,20.17
2023-05-14T15:24:49.243Z,20.09
2023-05-14T15:27:19.183Z,20.14
2023-05-14T15:29:51.782Z,20.19
2023-05-14T15:32:21.821Z,20.16
2023-05-14T15:34:51.722Z,20.10
2023-05-14T15:37:21.800Z,20.09
2023-05-14T15:39:51.766Z,20.07
2023-05-14T15:42:22.578Z,20.07
2023-05-14T15:44:55.038Z,20.06
2023-05-14T15:47:24.993Z,20.10
2023-05-14T19:38:58.118Z,16.58
2023-05-14T19:41:28.125Z,16.54
2023-05-14T19:43:58.074Z,16.55
2023-05-14T19:46:28.342Z,16.51
2023-05-14T19:48:58.526Z,16.50
2023-05-14T19:51:28.997Z,16.44
2023-05-14T19:54:01.753Z,16.42
2023-05-14T19:56:31.848Z,16.37
2023-05-14T19:59:02.154Z,16.36
2023-05-14T20:01:32.602Z,16.34
2023-05-14T20:04:03.069Z,16.12
2023-05-14T20:06:34.669Z,16.04
2023-05-14T20:09:07.396Z,15.89
2023-05-14T20:11:37.668Z,15.80
2023-05-14T20:14:07.842Z,15.77
2023-05-14T20:16:38.130Z,15.72
2023-05-14T20:19:08.407Z,15.71
2023-05-14T20:21:38.741Z,15.61
2023-05-14T20:24:11.625Z,15.59
2023-05-14T20:26:41.809Z,15.59
2023-05-14T20:29:14.697Z,15.46
2023-05-14T20:31:44.883Z,15.34
2023-05-14T20:34:15.068Z,15.32
2023-05-14T20:36:45.315Z,15.35
2023-05-14T20:39:18.447Z,15.27
2023-05-14T20:41:48.275Z,15.30
2023-05-14T20:44:20.370Z,15.28
2023-05-14T20:46:50.749Z,15.27
2023-05-14T20:49:20.810Z,15.25
2023-05-14T20:51:51.009Z,15.22
2023-05-14T20:54:23.658Z,15.24
2023-05-14T20:56:53.943Z,15.24
2023-05-14T20:59:24.077Z,15.24
2023-05-14T21:01:54.210Z,15.24
2023-05-14T21:04:24.279Z,15.14
2023-05-14T21:06:55.233Z,15.17
2023-05-14T21:09:27.936Z,15.09
2023-05-14T21:11:57.998Z,15.01
2023-05-14T21:14:28.178Z,14.97
2023-05-14T21:16:58.211Z,14.99
2023-05-14T21:19:28.254Z,14.99
2023-05-14T21:21:58.500Z,15.00
2023-05-14T21:24:31.445Z,15.00
2023-05-14T21:27:01.736Z,14.97
2023-05-14T21:29:31.988Z,14.93
2023-05-14T21:32:02.236Z,14.89
2023-05-14T21:34:32.524Z,14.85
2023-05-14T21:37:03.169Z,14.80
2023-05-14T21:39:35.695Z,14.77
2023-05-14T21:42:06.309Z,14.80
2023-05-14T21:44:37.239Z,14.80
2023-05-14T21:47:08.752Z,14.78
2023-05-14T21:49:39.244Z,14.78
2023-05-14T21:52:10.088Z,14.75
2023-05-14T21:54:45.785Z,14.72
2023-05-14T21:57:16.348Z,14.63
2023-05-14T21:59:49.148Z,14.62
2023-05-14T22:02:20.391Z,14.61
2023-05-14T22:04:53.774Z,14.60
2023-05-14T22:07:24.522Z,14.60
2023-05-14T22:09:57.968Z,14.60
2023-05-14T22:12:28.346Z,14.57
2023-05-14T22:14:58.966Z,14.55
2023-05-14T22:17:30.704Z,14.55
2023-05-14T22:20:01.393Z,14.43
2023-05-14T22:22:31.908Z,14.40
2023-05-14T22:25:05.238Z,14.41
2023-05-14T22:30:50.800Z,14.36
2023-05-14T22:33:38.314Z,14.32
2023-05-14T22:36:10.817Z,14.30
2023-05-14T22:39:06.061Z,14.25
2023-05-14T22:42:00.141Z,14.22
2023-05-14T22:44:33.532Z,14.21
2023-05-14T22:50:21.211Z,14.13
2023-05-14T22:56:31.988Z,14.06
2023-05-14T22:59:45.628Z,14.04
2023-05-14T23:05:53.372Z,13.99
2023-05-14T23:08:57.738Z,13.95
2023-05-14T23:11:59.272Z,13.90
2023-05-14T23:25:09.822Z,13.69
2023-05-14T23:28:07.678Z,13.66
2023-05-14T23:31:52.042Z,13.59
2023-05-14T23:34:39.594Z,13.53
2023-05-14T23:37:47.633Z,13.50
2023-05-14T23:40:56.093Z,13.43
2023-05-14T23:44:07.034Z,13.39
2023-05-14T23:47:15.621Z,13.34
2023-05-14T23:50:24.121Z,13.33
2023-05-14T23:52:56.202Z,13.26
2023-05-14T23:55:52.920Z,13.19
